createdAt,value
2019-01-14T00:00:42.439Z,3.90
2019-01-14T00:02:43.316Z,8.13
2019-01-14T00:04:44.409Z,7.27
2019-01-14T00:06:45.249Z,5.13
2019-01-14T00:08:46.084Z,6.93
2019-01-14T00:10:46.912Z,7.07
2019-01-14T00:12:47.769Z,3.87
2019-01-14T00:14:48.612Z,6.50
2019-01-14T00:16:49.464Z,4.07
2019-01-14T00:18:50.824Z,3.57
2019-01-14T00:20:52.044Z,3.90
2019-01-14T00:22:52.892Z,3.30
2019-01-14T00:24:53.724Z,3.40
2019-01-14T00:26:54.573Z,4.23
2019-01-14T00:28:55.408Z,3.10
2019-01-14T00:30:56.239Z,3.30
2019-01-14T00:32:57.092Z,3.10
2019-01-14T00:34:58.204Z,2.77
2019-01-14T00:36:59.316Z,2.67
2019-01-14T00:39:00.160Z,3.10
2019-01-14T00:41:01.018Z,4.00
2019-01-14T00:43:02.245Z,2.60
2019-01-14T00:45:03.193Z,4.77
2019-01-14T00:47:04.032Z,3.10
2019-01-14T00:49:04.870Z,2.70
2019-01-14T00:51:05.724Z,3.20
2019-01-14T00:53:06.556Z,3.70
2019-01-14T00:55:07.645Z,4.13
2019-01-14T00:57:08.495Z,3.87
2019-01-14T00:59:09.330Z,3.50
2019-01-14T01:01:10.181Z,2.60
2019-01-14T01:03:11.012Z,2.47
2019-01-14T01:05:12.157Z,2.73
2019-01-14T01:07:12.988Z,3.70
2019-01-14T01:09:14.233Z,3.63
2019-01-14T01:11:15.075Z,3.37
2019-01-14T01:13:15.914Z,3.47
2019-01-14T01:15:16.754Z,3.07
2019-01-14T01:17:17.612Z,5.40
2019-01-14T01:19:18.768Z,4.00
2019-01-14T01:21:19.596Z,2.97
2019-01-14T01:23:20.446Z,3.70
2019-01-14T01:25:21.284Z,2.97
2019-01-14T01:27:22.410Z,5.40
2019-01-14T01:29:23.344Z,3.77
2019-01-14T01:31:24.197Z,4.80
2019-01-14T01:33:25.048Z,4.43
2019-01-14T01:35:25.876Z,4.30
2019-01-14T01:37:26.729Z,4.00
2019-01-14T01:39:27.564Z,3.97
2019-01-14T01:41:28.417Z,3.97
2019-01-14T01:43:29.260Z,6.63
2019-01-14T01:45:30.120Z,3.87
2019-01-14T01:47:31.245Z,5.13
2019-01-14T01:49:32.081Z,4.63
2019-01-14T01:51:32.929Z,5.27
2019-01-14T01:53:33.765Z,5.53
2019-01-14T01:55:34.592Z,4.77
2019-01-14T01:57:35.748Z,5.73
2019-01-14T01:59:36.879Z,3.03
2019-01-14T02:01:37.727Z,4.43
2019-01-14T02:03:38.564Z,7.33
2019-01-14T02:05:39.391Z,7.17
2019-01-14T02:07:40.517Z,5.67
2019-01-14T02:09:41.367Z,4.80
2019-01-14T02:11:42.216Z,5.10
2019-01-14T02:13:43.058Z,5.43
2019-01-14T02:15:43.905Z,7.63
2019-01-14T02:17:45.077Z,5.10
2019-01-14T02:19:46.172Z,8.20
2019-01-14T02:21:47.004Z,6.03
2019-01-14T02:23:47.845Z,5.10
2019-01-14T02:25:48.668Z,5.63
2019-01-14T02:27:49.870Z,6.97
2019-01-14T02:29:50.709Z,4.27
2019-01-14T02:31:51.847Z,4.73
2019-01-14T02:33:52.873Z,7.40
2019-01-14T02:35:54.204Z,6.00
2019-01-14T02:37:55.372Z,3.50
2019-01-14T02:39:56.196Z,6.53
2019-01-14T02:41:57.034Z,4.33
2019-01-14T02:44:09.641Z,6.90
2019-01-14T02:46:10.766Z,3.13
2019-01-14T02:48:11.625Z,7.57
2019-01-14T02:50:12.456Z,7.30
2019-01-14T02:52:13.594Z,3.03
2019-01-14T02:54:14.431Z,6.70
2019-01-14T02:56:15.257Z,7.47
2019-01-14T02:58:16.839Z,3.03
2019-01-14T03:00:17.668Z,4.70
2019-01-14T03:02:18.500Z,4.50
2019-01-14T03:04:19.472Z,3.03
2019-01-14T03:06:20.316Z,3.30
2019-01-14T03:08:21.483Z,6.83
2019-01-14T03:10:22.333Z,6.00
2019-01-14T03:12:23.185Z,5.60
2019-01-14T03:14:24.032Z,9.00
2019-01-14T03:16:24.878Z,7.13
2019-01-14T03:18:26.061Z,6.47
2019-01-14T03:20:26.911Z,4.60
2019-01-14T03:22:28.014Z,5.43
2019-01-14T03:24:28.857Z,6.33
2019-01-14T03:26:29.708Z,6.07
2019-01-14T03:28:30.545Z,5.13
2019-01-14T03:30:31.366Z,7.30
2019-01-14T03:32:32.228Z,6.33
2019-01-14T03:34:33.316Z,7.47
2019-01-14T03:36:34.168Z,6.40
2019-01-14T03:38:35.024Z,5.47
2019-01-14T03:40:35.856Z,8.20
2019-01-14T03:42:36.704Z,4.57
2019-01-14T03:44:37.540Z,4.60
2019-01-14T03:46:38.388Z,4.43
2019-01-14T03:48:39.244Z,5.87
2019-01-14T03:50:40.425Z,4.53
2019-01-14T03:52:41.248Z,5.77
2019-01-14T03:54:42.088Z,4.90
2019-01-14T03:56:42.940Z,6.60
2019-01-14T03:58:43.781Z,5.80
2019-01-14T04:00:44.600Z,4.53
2019-01-14T04:02:45.470Z,4.23
2019-01-14T04:04:46.290Z,5.33
2019-01-14T04:06:47.140Z,3.93
2019-01-14T04:08:47.988Z,7.33
2019-01-14T04:10:48.820Z,5.93
2019-01-14T04:12:49.670Z,5.50
2019-01-14T04:14:50.536Z,5.70
2019-01-14T04:16:51.378Z,4.77
2019-01-14T04:18:52.217Z,3.83
2019-01-14T04:20:53.035Z,7.37
2019-01-14T04:22:53.884Z,6.07
2019-01-14T04:24:54.754Z,4.47
2019-01-14T04:26:55.573Z,6.67
2019-01-14T04:28:56.409Z,5.53
2019-01-14T04:30:57.257Z,6.07
2019-01-14T04:32:58.404Z,3.80
2019-01-14T04:34:59.241Z,6.50
2019-01-14T04:37:00.098Z,5.83
2019-01-14T04:39:01.737Z,6.93
2019-01-14T04:41:02.570Z,5.90
2019-01-14T04:43:03.424Z,4.60
2019-01-14T04:45:04.532Z,4.50
2019-01-14T04:47:05.365Z,6.73
2019-01-14T04:49:06.216Z,7.73
2019-01-14T04:51:07.055Z,4.50
2019-01-14T04:53:08.181Z,5.23
2019-01-14T04:55:09.014Z,4.30
2019-01-14T04:57:09.881Z,4.87
2019-01-14T04:59:10.701Z,6.10
2019-01-14T05:01:11.541Z,4.50
2019-01-14T05:03:12.397Z,7.40
2019-01-14T05:05:13.224Z,10.60
2019-01-14T05:07:14.059Z,6.13
2019-01-14T05:09:14.910Z,7.23
2019-01-14T05:11:15.764Z,5.33
2019-01-14T05:13:16.614Z,5.90
2019-01-14T05:15:17.554Z,4.10
2019-01-14T05:17:18.692Z,3.87
2019-01-14T05:19:19.532Z,4.70
2019-01-14T05:21:20.649Z,7.00
2019-01-14T05:23:21.810Z,7.50
2019-01-14T05:25:22.651Z,4.93
2019-01-14T05:27:23.489Z,6.03
2019-01-14T05:29:24.312Z,6.17
2019-01-14T05:31:25.269Z,5.53
2019-01-14T05:33:26.100Z,5.90
2019-01-14T05:35:26.953Z,5.43
2019-01-14T05:37:27.784Z,5.13
2019-01-14T05:39:28.704Z,5.50
2019-01-14T05:41:29.626Z,7.00
2019-01-14T05:43:30.572Z,5.53
2019-01-14T05:45:31.496Z,6.13
2019-01-14T05:47:32.432Z,3.93
2019-01-14T05:49:33.872Z,8.70
2019-01-14T05:51:34.708Z,7.47
2019-01-14T05:53:35.644Z,8.17
2019-01-14T05:55:36.509Z,6.00
2019-01-14T05:57:37.331Z,8.87
2019-01-14T05:59:38.425Z,9.07
2019-01-14T06:01:39.441Z,7.10
2019-01-14T06:03:40.704Z,8.87
2019-01-14T06:05:41.535Z,7.10
2019-01-14T06:07:45.025Z,10.10
2019-01-14T06:09:45.408Z,7.50
2019-01-14T06:11:46.273Z,7.07
2019-01-14T06:13:47.101Z,10.80
2019-01-14T06:15:47.935Z,4.67
2019-01-14T06:17:49.104Z,7.47
2019-01-14T06:19:50.145Z,6.67
2019-01-14T06:21:51.284Z,4.20
2019-01-14T06:23:52.120Z,5.70
2019-01-14T06:25:53.311Z,5.53
2019-01-14T06:27:54.140Z,6.63
2019-01-14T06:29:54.972Z,7.30
2019-01-14T06:31:55.816Z,5.40
2019-01-14T06:33:56.640Z,6.07
2019-01-14T06:35:59.153Z,7.40
2019-01-14T06:38:00.189Z,6.00
2019-01-14T06:40:01.027Z,6.70
2019-01-14T06:42:01.878Z,6.20
2019-01-14T06:44:02.713Z,5.77
2019-01-14T06:46:04.084Z,6.67
2019-01-14T06:48:04.930Z,8.67
2019-01-14T06:50:05.792Z,7.93
2019-01-14T06:52:06.961Z,7.77
2019-01-14T06:54:07.791Z,6.07
2019-01-14T06:56:08.648Z,5.23
2019-01-14T06:58:09.493Z,7.10
2019-01-14T07:00:10.317Z,7.10
2019-01-14T07:02:11.161Z,6.40
2019-01-14T07:04:12.022Z,7.50
2019-01-14T07:06:12.848Z,7.83
2019-01-14T07:08:14.041Z,7.10
2019-01-14T07:10:14.997Z,5.73
2019-01-14T07:12:16.097Z,9.37
2019-01-14T07:14:16.948Z,7.97
2019-01-14T07:16:17.780Z,5.37
2019-01-14T07:18:18.634Z,7.20
2019-01-14T07:20:19.460Z,5.23
2019-01-14T07:22:20.299Z,8.07
2019-01-14T07:24:21.149Z,8.70
2019-01-14T07:26:22.069Z,9.73
2019-01-14T07:28:22.913Z,7.07
2019-01-14T07:30:24.023Z,6.20
2019-01-14T07:32:24.848Z,9.50
2019-01-14T07:34:25.699Z,7.57
2019-01-14T07:36:26.552Z,6.90
2019-01-14T07:38:27.641Z,6.03
2019-01-14T07:40:28.481Z,4.20
2019-01-14T07:42:29.329Z,7.13
2019-01-14T07:44:30.172Z,6.87
2019-01-14T07:46:31.016Z,4.73
2019-01-14T07:48:32.214Z,8.27
2019-01-14T07:50:33.383Z,6.50
2019-01-14T07:52:34.517Z,7.30
2019-01-14T07:54:35.333Z,7.93
2019-01-14T07:56:36.385Z,6.43
2019-01-14T07:58:37.332Z,6.53
2019-01-14T08:00:38.172Z,7.43
2019-01-14T08:02:39.292Z,7.70
2019-01-14T08:04:40.140Z,5.70
2019-01-14T08:06:41.008Z,7.27
2019-01-14T08:08:41.865Z,6.77
2019-01-14T08:10:42.717Z,7.60
2019-01-14T08:12:43.548Z,6.57
2019-01-14T08:14:44.382Z,8.93
2019-01-14T08:16:45.255Z,10.33
2019-01-14T08:18:46.097Z,5.63
2019-01-14T08:20:47.413Z,7.73
2019-01-14T08:22:48.249Z,8.67
2019-01-14T08:24:49.367Z,7.67
2019-01-14T08:26:50.224Z,8.30
2019-01-14T08:28:51.056Z,4.60
2019-01-14T08:30:52.168Z,6.27
2019-01-14T08:32:53.018Z,9.13
2019-01-14T08:34:53.853Z,6.77
2019-01-14T08:37:00.700Z,9.93
2019-01-14T08:38:57.440Z,11.73
2019-01-14T08:40:59.181Z,7.33
2019-01-14T08:43:00.367Z,8.20
2019-01-14T08:45:01.184Z,6.93
2019-01-14T08:47:02.040Z,7.60
2019-01-14T08:49:02.880Z,9.67
2019-01-14T08:51:04.003Z,8.20
2019-01-14T08:53:04.856Z,5.40
2019-01-14T08:55:05.683Z,6.07
2019-01-14T08:57:06.557Z,8.13
2019-01-14T08:59:07.396Z,7.50
2019-01-14T09:01:08.229Z,5.43
2019-01-14T09:03:09.086Z,5.47
2019-01-14T09:05:09.920Z,8.77
2019-01-14T09:07:10.746Z,6.03
2019-01-14T09:09:11.609Z,9.43
2019-01-14T09:11:12.461Z,6.37
2019-01-14T09:13:13.280Z,8.27
2019-01-14T09:15:14.112Z,7.70
2019-01-14T09:17:14.936Z,8.47
2019-01-14T09:19:15.792Z,6.80
2019-01-14T09:21:16.624Z,9.13
2019-01-14T09:23:17.749Z,5.90
2019-01-14T09:25:18.861Z,6.97
2019-01-14T09:27:19.702Z,5.23
2019-01-14T09:29:20.548Z,7.10
2019-01-14T09:31:23.291Z,8.43
2019-01-14T09:33:24.129Z,7.57
2019-01-14T09:35:24.972Z,7.70
2019-01-14T09:37:26.117Z,8.03
2019-01-14T09:39:26.968Z,7.83
2019-01-14T09:41:27.802Z,6.70
2019-01-14T09:43:28.748Z,8.80
2019-01-14T09:45:29.629Z,8.30
2019-01-14T09:47:30.768Z,6.03
2019-01-14T09:49:31.611Z,8.33
2019-01-14T09:51:32.460Z,7.93
2019-01-14T09:53:33.296Z,10.17
2019-01-14T09:55:34.237Z,9.27
2019-01-14T09:57:35.085Z,10.47
2019-01-14T09:59:35.923Z,9.87
2019-01-14T10:01:36.769Z,6.20
2019-01-14T10:03:37.612Z,6.07
2019-01-14T10:05:38.448Z,8.27
2019-01-14T10:07:39.280Z,8.03
2019-01-14T10:09:40.493Z,10.03
2019-01-14T10:11:41.325Z,7.23
2019-01-14T10:13:42.448Z,9.90
2019-01-14T10:15:43.301Z,7.90
2019-01-14T10:17:45.037Z,9.03
2019-01-14T10:19:45.872Z,7.17
2019-01-14T10:21:46.722Z,4.90
2019-01-14T10:23:47.561Z,8.70
2019-01-14T10:25:48.508Z,9.07
2019-01-14T10:27:49.340Z,7.27
2019-01-14T10:29:50.436Z,8.03
2019-01-14T10:31:51.599Z,8.43
2019-01-14T10:33:52.635Z,6.20
2019-01-14T10:35:53.865Z,8.00
2019-01-14T10:37:54.712Z,9.47
2019-01-14T10:39:55.849Z,6.90
2019-01-14T10:41:56.712Z,8.07
2019-01-14T10:43:57.816Z,6.87
2019-01-14T10:45:58.673Z,7.07
2019-01-14T10:47:59.530Z,10.20
2019-01-14T10:50:00.377Z,7.53
2019-01-14T10:52:01.236Z,7.23
2019-01-14T10:54:02.060Z,7.37
2019-01-14T10:56:03.213Z,6.43
2019-01-14T10:58:04.068Z,10.07
2019-01-14T11:00:05.019Z,7.53
2019-01-14T11:02:05.853Z,11.27
2019-01-14T11:04:06.692Z,7.03
2019-01-14T11:06:07.796Z,8.40
2019-01-14T11:08:08.624Z,7.97
2019-01-14T11:10:09.535Z,8.50
2019-01-14T11:12:10.428Z,6.83
2019-01-14T11:14:11.559Z,6.77
2019-01-14T11:16:12.395Z,6.67
2019-01-14T11:18:13.500Z,6.97
2019-01-14T11:20:14.361Z,5.60
2019-01-14T11:22:15.191Z,8.00
2019-01-14T11:24:16.019Z,7.77
2019-01-14T11:26:16.857Z,8.47
2019-01-14T11:28:17.685Z,7.57
2019-01-14T11:30:18.829Z,8.30
2019-01-14T11:32:19.664Z,9.33
2019-01-14T11:34:20.488Z,6.90
2019-01-14T11:36:21.356Z,8.37
2019-01-14T11:38:22.185Z,9.87
2019-01-14T11:40:23.013Z,8.50
2019-01-14T11:42:23.864Z,8.40
2019-01-14T11:44:24.697Z,8.70
2019-01-14T11:46:25.797Z,6.83
2019-01-14T11:48:26.635Z,6.57
2019-01-14T11:50:27.765Z,7.83
2019-01-14T11:52:28.608Z,7.43
2019-01-14T11:54:29.446Z,7.40
2019-01-14T11:56:30.293Z,6.77
2019-01-14T11:58:31.128Z,7.17
2019-01-14T12:00:36.590Z,5.77
2019-01-14T12:02:39.490Z,9.57
2019-01-14T12:04:37.780Z,6.70
2019-01-14T12:06:38.724Z,9.13
2019-01-14T12:08:39.573Z,7.50
2019-01-14T12:10:40.408Z,6.90
2019-01-14T12:12:41.237Z,7.07
2019-01-14T12:14:42.377Z,7.77
2019-01-14T12:16:43.512Z,7.23
2019-01-14T12:18:44.356Z,5.80
2019-01-14T12:20:45.188Z,7.40
2019-01-14T12:22:46.036Z,6.70
2019-01-14T12:24:46.883Z,7.63
2019-01-14T12:26:47.724Z,4.80
2019-01-14T12:28:48.552Z,5.27
2019-01-14T12:30:49.404Z,7.17
2019-01-14T12:32:50.578Z,12.03
2019-01-14T12:34:51.413Z,5.13
2019-01-14T12:36:52.264Z,7.40
2019-01-14T12:38:53.109Z,7.20
2019-01-14T12:40:53.946Z,9.93
2019-01-14T12:42:54.780Z,7.90
2019-01-14T12:44:55.608Z,6.57
2019-01-14T12:46:56.460Z,6.70
2019-01-14T12:48:57.664Z,7.43
2019-01-14T12:50:58.496Z,6.37
2019-01-14T12:52:59.340Z,7.30
2019-01-14T12:55:00.460Z,8.20
2019-01-14T12:57:01.316Z,8.50
2019-01-14T12:59:02.165Z,6.07
2019-01-14T13:01:03.004Z,5.13
2019-01-14T13:03:03.833Z,6.43
2019-01-14T13:05:04.668Z,5.83
2019-01-14T13:07:05.532Z,7.03
2019-01-14T13:09:07.763Z,6.40
2019-01-14T13:11:08.605Z,6.20
2019-01-14T13:13:09.448Z,11.37
2019-01-14T13:15:10.388Z,2.77
2019-01-14T13:17:11.256Z,3.00
2019-01-14T13:19:12.400Z,1.80
2019-01-14T13:21:13.240Z,2.00
2019-01-14T13:23:14.084Z,2.30
2019-01-14T13:25:14.913Z,1.67
2019-01-14T13:27:15.768Z,1.93
2019-01-14T13:29:16.603Z,1.53
2019-01-14T13:31:17.436Z,1.60
2019-01-14T13:33:18.556Z,2.00
2019-01-14T13:35:19.409Z,2.03
2019-01-14T13:37:20.240Z,1.70
2019-01-14T13:39:21.080Z,2.10
2019-01-14T13:41:21.936Z,4.80
2019-01-14T13:43:22.766Z,1.97
2019-01-14T13:45:23.604Z,3.50
2019-01-14T13:47:24.437Z,3.03
2019-01-14T13:49:25.285Z,1.60
2019-01-14T13:51:26.116Z,2.23
2019-01-14T13:53:26.940Z,2.10
2019-01-14T13:55:27.793Z,2.47
2019-01-14T13:57:28.969Z,1.70
2019-01-14T13:59:29.800Z,1.60
2019-01-14T14:01:30.647Z,2.23
2019-01-14T14:03:31.485Z,2.57
2019-01-14T14:05:32.328Z,2.43
2019-01-14T14:07:33.265Z,3.53
2019-01-14T14:09:41.031Z,3.10
2019-01-14T14:11:36.837Z,2.27
2019-01-14T14:13:37.679Z,2.53
2019-01-14T14:15:38.516Z,3.50
2019-01-14T14:17:39.627Z,4.30
2019-01-14T14:19:40.481Z,4.00
2019-01-14T14:21:41.317Z,3.43
2019-01-14T14:23:42.157Z,3.17
2019-01-14T14:25:42.976Z,6.73
2019-01-14T14:27:43.821Z,3.00
2019-01-14T14:29:44.680Z,4.27
2019-01-14T14:31:45.520Z,2.70
2019-01-14T14:33:46.376Z,3.70
2019-01-14T14:35:47.225Z,4.67
2019-01-14T14:37:48.077Z,4.77
2019-01-14T14:39:48.901Z,5.67
2019-01-14T14:41:49.765Z,4.30
2019-01-14T14:43:50.604Z,3.30
2019-01-14T14:45:51.456Z,3.63
2019-01-14T14:47:52.646Z,3.17
2019-01-14T14:49:53.468Z,3.67
2019-01-14T14:51:54.628Z,4.63
2019-01-14T14:53:55.465Z,3.63
2019-01-14T14:55:56.607Z,3.37
2019-01-14T14:57:57.466Z,3.17
2019-01-14T14:59:58.304Z,3.30
2019-01-14T15:01:59.404Z,3.20
2019-01-14T15:04:00.238Z,4.43
2019-01-14T15:06:01.188Z,5.60
2019-01-14T15:08:02.416Z,4.33
2019-01-14T15:10:03.248Z,3.80
2019-01-14T15:12:04.085Z,5.47
2019-01-14T15:14:04.933Z,2.50
2019-01-14T15:16:06.051Z,3.37
2019-01-14T15:18:06.879Z,5.00
2019-01-14T15:20:07.724Z,4.23
2019-01-14T15:22:08.607Z,4.83
2019-01-14T15:24:11.501Z,4.40
2019-01-14T15:26:12.328Z,5.00
2019-01-14T15:28:13.164Z,5.13
2019-01-14T15:30:14.000Z,4.60
2019-01-14T15:32:14.844Z,5.37
2019-01-14T15:34:15.693Z,4.00
2019-01-14T15:36:16.529Z,4.07
2019-01-14T15:38:17.353Z,4.63
2019-01-14T15:40:18.204Z,5.53
2019-01-14T15:42:19.331Z,5.23
2019-01-14T15:44:21.024Z,3.87
2019-01-14T15:46:22.040Z,5.77
2019-01-14T15:48:22.869Z,5.07
2019-01-14T15:50:23.803Z,5.50
2019-01-14T15:52:24.937Z,6.53
2019-01-14T15:54:25.788Z,7.33
2019-01-14T15:56:26.909Z,7.10
2019-01-14T15:58:27.736Z,5.33
2019-01-14T16:00:28.589Z,5.30
2019-01-14T16:02:29.425Z,7.43
2019-01-14T16:04:30.249Z,6.53
2019-01-14T16:06:31.108Z,5.67
2019-01-14T16:08:31.936Z,7.90
2019-01-14T16:10:32.761Z,9.20
2019-01-14T16:12:33.628Z,11.30
2019-01-14T16:14:34.457Z,7.07
2019-01-14T16:16:35.291Z,5.60
2019-01-14T16:18:36.603Z,11.67
2019-01-14T16:20:37.436Z,9.67
2019-01-14T16:22:38.273Z,6.90
2019-01-14T16:24:39.231Z,7.87
2019-01-14T16:26:40.064Z,5.77
2019-01-14T16:28:40.972Z,4.83
2019-01-14T16:30:41.819Z,5.27
2019-01-14T16:32:42.649Z,6.20
2019-01-14T16:34:43.497Z,6.73
2019-01-14T16:36:44.589Z,6.13
2019-01-14T16:38:45.488Z,7.90
2019-01-14T16:40:46.397Z,8.00
2019-01-14T16:42:47.224Z,8.70
2019-01-14T16:44:48.059Z,8.67
2019-01-14T16:46:48.918Z,9.33
2019-01-14T16:48:49.744Z,12.07
2019-01-14T16:50:50.700Z,8.47
2019-01-14T16:52:51.532Z,8.93
2019-01-14T16:54:52.364Z,8.70
2019-01-14T16:56:53.216Z,8.67
2019-01-14T16:58:54.059Z,7.43
2019-01-14T17:00:55.316Z,8.30
2019-01-14T17:02:56.173Z,11.03
2019-01-14T17:04:57.016Z,9.23
2019-01-14T17:06:57.937Z,13.83
2019-01-14T17:08:58.881Z,10.97
2019-01-14T17:10:59.720Z,12.23
2019-01-14T17:13:00.575Z,11.23
2019-01-14T17:15:01.430Z,10.47
2019-01-14T17:17:02.256Z,10.23
2019-01-14T17:19:03.737Z,7.80
2019-01-14T17:21:04.565Z,11.17
2019-01-14T17:23:05.400Z,12.17
2019-01-14T17:25:06.261Z,13.00
2019-01-14T17:27:07.085Z,10.90
2019-01-14T17:29:08.500Z,9.13
2019-01-14T17:31:09.344Z,10.83
2019-01-14T17:33:10.473Z,9.40
2019-01-14T17:35:11.741Z,8.40
2019-01-14T17:37:12.876Z,10.53
2019-01-14T17:39:14.106Z,11.20
2019-01-14T17:41:15.245Z,9.97
2019-01-14T17:43:16.127Z,11.60
2019-01-14T17:45:16.975Z,9.90
2019-01-14T17:47:18.174Z,10.77
2019-01-14T17:49:19.024Z,9.07
2019-01-14T17:51:19.955Z,11.07
2019-01-14T17:53:20.813Z,9.93
2019-01-14T17:55:21.648Z,10.60
2019-01-14T17:57:22.481Z,11.63
2019-01-14T17:59:23.680Z,10.33
2019-01-14T18:01:24.529Z,10.63
2019-01-14T18:03:25.472Z,11.50
2019-01-14T18:05:26.816Z,9.77
2019-01-14T18:07:27.684Z,13.27
2019-01-14T18:09:28.533Z,8.43
2019-01-14T18:11:29.781Z,9.77
2019-01-14T18:13:30.644Z,15.13
2019-01-14T18:15:31.476Z,15.03
2019-01-14T18:17:33.330Z,10.63
2019-01-14T18:19:35.183Z,11.47
2019-01-14T18:21:36.320Z,9.40
2019-01-14T18:23:37.157Z,13.10
2019-01-14T18:25:38.276Z,10.00
2019-01-14T18:27:39.161Z,11.93
2019-01-14T18:29:40.087Z,7.63
2019-01-14T18:31:41.028Z,7.77
2019-01-14T18:33:41.956Z,6.73
2019-01-14T18:35:42.792Z,10.10
2019-01-14T18:37:43.617Z,9.50
2019-01-14T18:39:44.476Z,11.33
2019-01-14T18:41:45.305Z,9.07
2019-01-14T18:43:46.132Z,10.70
2019-01-14T18:45:47.076Z,7.17
2019-01-14T18:47:48.021Z,7.37
2019-01-14T18:49:49.201Z,9.27
2019-01-14T18:51:50.352Z,7.43
2019-01-14T18:53:51.211Z,5.83
2019-01-14T18:55:52.328Z,10.20
2019-01-14T18:57:53.172Z,8.03
2019-01-14T18:59:54.024Z,9.50
2019-01-14T19:01:54.946Z,8.93
2019-01-14T19:03:55.795Z,9.67
2019-01-14T19:05:56.628Z,17.50
2019-01-14T19:07:57.476Z,9.03
2019-01-14T19:09:58.356Z,8.43
2019-01-14T19:11:59.165Z,10.07
2019-01-14T19:14:00.008Z,8.50
2019-01-14T19:16:00.856Z,7.47
2019-01-14T19:18:01.692Z,10.13
2019-01-14T19:20:02.532Z,10.47
2019-01-14T19:22:03.394Z,10.83
2019-01-14T19:24:04.220Z,9.67
2019-01-14T19:26:05.045Z,8.43
2019-01-14T19:28:05.920Z,8.13
2019-01-14T19:30:06.830Z,11.03
2019-01-14T19:32:08.125Z,9.53
2019-01-14T19:34:08.965Z,9.53
2019-01-14T19:36:09.813Z,9.73
2019-01-14T19:38:10.660Z,11.20
2019-01-14T19:40:11.710Z,8.23
2019-01-14T19:42:12.541Z,8.03
2019-01-14T19:44:13.390Z,8.77
2019-01-14T19:46:15.059Z,10.00
2019-01-14T19:48:15.913Z,6.80
2019-01-14T19:50:17.036Z,6.73
2019-01-14T19:52:17.876Z,6.30
2019-01-14T19:54:19.048Z,8.27
2019-01-14T19:56:19.881Z,7.63
2019-01-14T19:58:20.732Z,8.27
2019-01-14T20:00:21.832Z,6.47
2019-01-14T20:02:22.685Z,6.10
2019-01-14T20:04:23.533Z,6.60
2019-01-14T20:06:24.370Z,10.93
2019-01-14T20:08:25.800Z,7.30
2019-01-14T20:10:26.932Z,9.27
2019-01-14T20:12:27.762Z,9.73
2019-01-14T20:14:28.612Z,8.97
2019-01-14T20:16:29.449Z,9.47
2019-01-14T20:18:30.336Z,9.30
2019-01-14T20:20:31.177Z,6.77
2019-01-14T20:22:32.020Z,8.53
2019-01-14T20:24:32.876Z,8.83
2019-01-14T20:26:34.012Z,6.23
2019-01-14T20:28:34.849Z,7.67
2019-01-14T20:30:35.691Z,8.37
2019-01-14T20:32:36.513Z,6.97
2019-01-14T20:34:37.339Z,6.40
2019-01-14T20:36:38.194Z,7.13
2019-01-14T20:38:39.044Z,7.13
2019-01-14T20:40:39.890Z,5.43
2019-01-14T20:42:40.725Z,5.83
2019-01-14T20:44:42.013Z,6.60
2019-01-14T20:46:42.853Z,9.97
2019-01-14T20:48:43.685Z,6.20
2019-01-14T20:50:44.524Z,11.70
2019-01-14T20:52:45.722Z,9.73
2019-01-14T20:54:46.869Z,8.60
2019-01-14T20:56:47.724Z,9.40
2019-01-14T20:58:48.573Z,6.47
2019-01-14T21:00:49.404Z,8.53
2019-01-14T21:02:50.538Z,7.40
2019-01-14T21:04:51.409Z,7.47
2019-01-14T21:06:52.264Z,6.50
2019-01-14T21:08:53.145Z,6.17
2019-01-14T21:10:54.120Z,7.97
2019-01-14T21:12:54.988Z,6.73
2019-01-14T21:14:55.861Z,5.83
2019-01-14T21:16:56.737Z,6.00
2019-01-14T21:18:57.617Z,9.43
2019-01-14T21:20:58.477Z,9.07
2019-01-14T21:22:59.533Z,7.30
2019-01-14T21:25:00.757Z,7.23
2019-01-14T21:27:01.618Z,5.33
2019-01-14T21:29:02.756Z,6.77
2019-01-14T21:31:03.719Z,7.70
2019-01-14T21:33:04.577Z,6.70
2019-01-14T21:35:05.761Z,5.43
2019-01-14T21:37:06.960Z,5.40
2019-01-14T21:39:07.810Z,8.97
2019-01-14T21:41:08.684Z,7.57
2019-01-14T21:43:09.569Z,6.23
2019-01-14T21:45:10.438Z,6.77
2019-01-14T21:47:11.435Z,5.63
2019-01-14T21:49:12.293Z,9.03
2019-01-14T21:51:13.146Z,7.27
2019-01-14T21:53:14.014Z,8.93
2019-01-14T21:55:14.874Z,7.20
2019-01-14T21:57:15.729Z,9.17
2019-01-14T21:59:16.597Z,7.30
2019-01-14T22:01:17.607Z,5.53
2019-01-14T22:03:18.477Z,6.07
2019-01-14T22:05:19.488Z,5.43
2019-01-14T22:07:20.336Z,6.27
2019-01-14T22:09:21.197Z,7.00
2019-01-14T22:11:22.200Z,4.93
2019-01-14T22:13:23.072Z,6.80
2019-01-14T22:15:23.970Z,6.77
2019-01-14T22:17:24.843Z,6.33
2019-01-14T22:19:25.995Z,6.63
2019-01-14T22:21:26.832Z,5.40
2019-01-14T22:23:27.722Z,10.33
2019-01-14T22:25:28.604Z,7.30
2019-01-14T22:27:29.462Z,8.47
2019-01-14T22:29:30.308Z,7.43
2019-01-14T22:31:31.202Z,7.07
2019-01-14T22:33:32.169Z,6.40
2019-01-14T22:35:33.040Z,9.77
2019-01-14T22:37:34.061Z,7.13
2019-01-14T22:39:34.920Z,9.10
2019-01-14T22:41:35.765Z,8.93
2019-01-14T22:43:36.914Z,7.83
2019-01-14T22:45:37.844Z,7.57
2019-01-14T22:47:38.677Z,6.27
2019-01-14T22:49:39.525Z,7.27
2019-01-14T22:51:40.356Z,9.57
2019-01-14T22:53:41.493Z,7.47
2019-01-14T22:55:42.316Z,8.47
2019-01-14T22:57:43.194Z,9.70
2019-01-14T22:59:44.053Z,7.83
2019-01-14T23:01:46.704Z,7.93
2019-01-14T23:03:47.532Z,8.97
2019-01-14T23:05:48.389Z,8.83
2019-01-14T23:07:49.241Z,7.97
2019-01-14T23:09:50.384Z,9.60
2019-01-14T23:11:53.181Z,8.80
2019-01-14T23:13:54.077Z,7.20
2019-01-14T23:15:54.904Z,7.00
2019-01-14T23:17:55.749Z,5.70
2019-01-14T23:19:56.604Z,9.53
2019-01-14T23:21:57.746Z,9.17
2019-01-14T23:23:58.599Z,12.43
2019-01-14T23:25:59.430Z,8.37
2019-01-14T23:28:00.551Z,7.00
2019-01-14T23:30:01.417Z,6.00
2019-01-14T23:32:02.382Z,9.80
2019-01-14T23:34:03.560Z,6.70
2019-01-14T23:36:04.408Z,8.37
2019-01-14T23:38:05.236Z,7.67
2019-01-14T23:40:06.176Z,7.83
2019-01-14T23:42:07.029Z,7.23
2019-01-14T23:44:07.880Z,8.10
2019-01-14T23:46:08.710Z,6.43
2019-01-14T23:48:09.552Z,8.73
2019-01-14T23:50:10.393Z,7.60
2019-01-14T23:52:11.676Z,8.90
2019-01-14T23:54:12.834Z,7.07
2019-01-14T23:56:13.676Z,7.70
2019-01-14T23:58:14.812Z,9.20
